Terminal Aerodrome Forecast
Issued by NWS Wilmington, OH

Current Version | Previous Version | Text Only | Print | Product List | Glossary Off
Versions: 1 2 3 4 5 6 7 8 9 10 11 12 13 14 15 16 17 18 19 20 21 22 23 24

000
FTUS41 KILN 142000 AAB
TAFCVG
TAF AMD
KCVG 142014Z 1420/1524 24011KT P6SM VCSH SCT022 OVC045
      TEMPO 1420/1422 BKN022
     FM142200 29010KT P6SM OVC012
     FM150100 32012G20KT 5SM -RA BR OVC008
     FM150500 33018G28KT 5SM -RASN BR OVC008
     FM150700 34018G26KT 2SM -SN OVC006
     FM151100 34015G25KT P6SM OVC025
     FM151500 33015G24KT P6SM SCT025
     FM151700 32015G22KT P6SM BKN040
     FM152200 33015KT P6SM BKN040=

USA.gov is the U.S. government's official web portal to all federal, state and local government web resources and services.